createdAt,value
2022-12-31T00:00:51.997Z,98.57
2022-12-31T00:02:54.788Z,97.85
2022-12-31T00:04:57.516Z,98.33
2022-12-31T00:07:00.151Z,97.92
2022-12-31T00:09:07.471Z,97.77
2022-12-31T00:11:10.220Z,98.12
2022-12-31T00:13:14.017Z,97.85
2022-12-31T00:15:17.159Z,97.99
2022-12-31T00:17:19.764Z,98.08
2022-12-31T00:19:22.363Z,98.33
2022-12-31T00:21:26.375Z,97.57
2022-12-31T00:23:29.018Z,97.84
2022-12-31T00:25:31.616Z,97.67
2022-12-31T00:27:34.471Z,97.50
2022-12-31T00:29:37.126Z,97.10
2022-12-31T00:31:40.059Z,97.63
2022-12-31T00:33:43.877Z,97.90
2022-12-31T00:35:46.500Z,97.22
2022-12-31T00:37:52.330Z,97.17
2022-12-31T00:39:54.961Z,97.44
2022-12-31T00:41:57.568Z,97.66
2022-12-31T00:44:00.606Z,97.53
2022-12-31T00:46:04.295Z,97.92
2022-12-31T00:48:06.988Z,97.84
2022-12-31T00:50:09.896Z,98.34
2022-12-31T00:52:14.095Z,97.86
2022-12-31T00:54:16.869Z,98.09
2022-12-31T00:56:22.605Z,98.17
2022-12-31T00:58:25.318Z,98.28
2022-12-31T01:00:27.977Z,98.55
2022-12-31T01:02:30.613Z,98.59
2022-12-31T01:04:33.334Z,98.43
2022-12-31T01:06:36.139Z,98.04
2022-12-31T01:08:39.421Z,98.56
2022-12-31T01:11:00.871Z,97.87
2022-12-31T01:13:03.676Z,98.18
2022-12-31T01:15:06.911Z,98.07
2022-12-31T01:17:09.703Z,97.68
2022-12-31T01:19:19.522Z,98.43
2022-12-31T01:21:22.591Z,98.11
2022-12-31T01:23:25.460Z,97.62
2022-12-31T01:25:28.045Z,98.07
2022-12-31T01:27:30.632Z,98.47
2022-12-31T01:29:33.398Z,98.62
2022-12-31T01:31:36.934Z,98.27
2022-12-31T01:33:40.224Z,98.59
2022-12-31T01:35:42.875Z,98.69
2022-12-31T01:37:45.653Z,98.34
2022-12-31T01:39:48.621Z,97.76
2022-12-31T01:41:51.255Z,98.21
2022-12-31T01:44:00.916Z,98.30
2022-12-31T01:46:03.595Z,97.99
2022-12-31T01:48:11.420Z,98.42
2022-12-31T01:50:29.439Z,98.24
2022-12-31T01:52:39.710Z,98.40
2022-12-31T01:54:47.992Z,97.91
2022-12-31T01:56:53.108Z,98.25
2022-12-31T01:58:58.314Z,98.33
2022-12-31T02:01:01.188Z,97.83
2022-12-31T02:03:05.908Z,97.76
2022-12-31T02:05:19.120Z,98.21
2022-12-31T02:07:22.939Z,97.80
2022-12-31T02:09:26.111Z,97.72
2022-12-31T02:11:33.063Z,98.11
2022-12-31T02:13:35.776Z,98.15
2022-12-31T02:16:29.407Z,98.11
2022-12-31T02:18:50.657Z,98.01
2022-12-31T02:21:05.387Z,97.30
2022-12-31T02:23:26.335Z,97.88
2022-12-31T02:26:17.408Z,97.52
2022-12-31T02:28:40.983Z,97.82
2022-12-31T02:30:47.537Z,97.57
2022-12-31T02:33:03.927Z,97.70
2022-12-31T02:35:30.172Z,98.04
2022-12-31T02:37:35.971Z,97.76
2022-12-31T02:39:39.787Z,98.13
2022-12-31T02:41:52.095Z,97.59
2022-12-31T02:43:54.742Z,98.50
2022-12-31T02:46:26.406Z,98.55
2022-12-31T02:48:40.002Z,98.66
2022-12-31T02:50:55.736Z,98.69
2022-12-31T02:53:04.252Z,98.64
2022-12-31T02:55:25.169Z,98.72
2022-12-31T02:57:41.811Z,99.01
2022-12-31T03:00:23.090Z,98.74
2022-12-31T03:02:30.968Z,98.47
2022-12-31T03:04:34.331Z,99.56
2022-12-31T03:06:37.269Z,98.45
2022-12-31T03:09:02.683Z,99.01
2022-12-31T03:11:25.337Z,99.24
2022-12-31T03:13:27.995Z,98.66
2022-12-31T03:15:32.688Z,99.10
2022-12-31T03:17:35.346Z,99.11
2022-12-31T03:19:56.735Z,99.21
2022-12-31T03:22:17.692Z,98.45
2022-12-31T03:24:38.892Z,98.26
2022-12-31T03:26:41.837Z,99.16
2022-12-31T03:28:48.124Z,98.82
2022-12-31T03:30:53.804Z,99.10
2022-12-31T03:32:57.124Z,98.65
2022-12-31T03:34:59.769Z,99.36
2022-12-31T03:37:02.352Z,99.26
2022-12-31T03:39:05.013Z,99.11
2022-12-31T03:41:11.278Z,99.58
2022-12-31T03:43:14.250Z,99.67
2022-12-31T03:45:17.027Z,99.33
2022-12-31T03:47:19.657Z,99.54
2022-12-31T03:49:22.287Z,99.71
2022-12-31T03:51:24.914Z,99.37
2022-12-31T03:53:28.075Z,99.27
2022-12-31T03:55:30.639Z,99.49
2022-12-31T03:57:33.913Z,99.53
2022-12-31T03:59:36.628Z,100.00
2022-12-31T04:01:39.298Z,100.00
2022-12-31T04:03:42.008Z,100.00
2022-12-31T04:05:44.667Z,100.00
2022-12-31T04:07:48.115Z,100.00
2022-12-31T04:09:50.919Z,100.00
2022-12-31T04:11:53.606Z,100.00
2022-12-31T04:13:56.231Z,100.00
2022-12-31T04:15:58.902Z,100.00
2022-12-31T04:18:01.543Z,100.00
2022-12-31T04:20:04.628Z,100.00
2022-12-31T04:22:07.373Z,100.00
2022-12-31T04:24:10.731Z,100.00
2022-12-31T04:26:13.464Z,100.00
2022-12-31T04:28:16.444Z,100.00
2022-12-31T04:30:19.125Z,99.59
2022-12-31T04:32:21.805Z,100.00
2022-12-31T04:34:24.415Z,99.94
2022-12-31T04:36:27.046Z,100.00
2022-12-31T04:38:29.889Z,100.00
2022-12-31T04:40:32.624Z,100.00
2022-12-31T04:42:36.022Z,99.92
2022-12-31T04:44:38.746Z,99.90
2022-12-31T04:46:41.623Z,100.00
2022-12-31T04:48:44.376Z,100.00
2022-12-31T04:50:47.730Z,99.46
2022-12-31T04:52:50.382Z,99.70
2022-12-31T04:54:52.963Z,99.46
2022-12-31T04:56:55.544Z,99.40
2022-12-31T04:58:58.343Z,99.05
2022-12-31T05:01:01.445Z,99.14
2022-12-31T05:03:04.247Z,99.09
2022-12-31T05:05:07.277Z,99.01
2022-12-31T05:07:09.934Z,98.87
2022-12-31T05:09:12.549Z,99.13
2022-12-31T05:11:16.133Z,98.99
2022-12-31T05:13:18.751Z,98.68
2022-12-31T05:15:21.310Z,99.26
2022-12-31T05:17:23.954Z,98.71
2022-12-31T05:19:26.586Z,99.49
2022-12-31T05:21:29.256Z,99.55
2022-12-31T05:23:32.359Z,99.02
2022-12-31T05:25:35.648Z,98.95
2022-12-31T05:27:38.347Z,99.04
2022-12-31T05:29:41.292Z,98.97
2022-12-31T05:31:43.890Z,99.59
2022-12-31T05:33:46.566Z,99.44
2022-12-31T05:35:49.241Z,99.81
2022-12-31T05:37:52.157Z,99.10
2022-12-31T05:39:54.773Z,99.16
2022-12-31T05:41:57.492Z,99.13
2022-12-31T05:44:00.134Z,98.95
2022-12-31T05:46:04.692Z,99.18
2022-12-31T05:48:07.444Z,99.98
2022-12-31T05:50:12.746Z,99.28
2022-12-31T05:52:15.425Z,99.46
2022-12-31T05:54:18.295Z,99.62
2022-12-31T05:56:21.428Z,99.11
2022-12-31T05:58:24.151Z,99.48
2022-12-31T06:00:26.817Z,99.67
2022-12-31T06:02:29.482Z,99.80
2022-12-31T06:04:32.262Z,99.53
2022-12-31T06:06:37.674Z,99.63
2022-12-31T06:08:41.006Z,99.03
2022-12-31T06:10:43.655Z,98.93
2022-12-31T06:12:46.293Z,99.09
2022-12-31T06:14:48.904Z,99.35
2022-12-31T06:16:51.501Z,98.57
2022-12-31T06:18:54.531Z,99.18
2022-12-31T06:20:59.002Z,98.58
2022-12-31T06:23:01.633Z,98.75
2022-12-31T06:25:04.697Z,99.05
2022-12-31T06:27:07.345Z,98.75
2022-12-31T06:29:10.621Z,99.33
2022-12-31T06:31:15.222Z,98.61
2022-12-31T06:33:17.914Z,98.46
2022-12-31T06:35:20.490Z,98.65
2022-12-31T06:37:23.166Z,98.48
2022-12-31T06:39:26.116Z,98.68
2022-12-31T06:41:28.737Z,98.80
2022-12-31T06:43:31.467Z,98.30
2022-12-31T06:45:34.092Z,98.52
2022-12-31T06:47:37.102Z,98.86
2022-12-31T06:49:41.377Z,98.83
2022-12-31T06:51:46.299Z,98.62
2022-12-31T06:53:51.101Z,99.19
2022-12-31T06:55:53.996Z,98.24
2022-12-31T06:57:57.104Z,98.16
2022-12-31T07:00:00.034Z,97.89
2022-12-31T07:02:16.044Z,97.75
2022-12-31T07:04:37.263Z,97.76
2022-12-31T07:06:57.951Z,97.61
2022-12-31T07:09:35.725Z,97.52
2022-12-31T07:12:23.210Z,97.69
2022-12-31T07:14:31.544Z,97.82
2022-12-31T07:16:46.259Z,97.60
2022-12-31T07:19:13.450Z,97.31
2022-12-31T07:21:21.790Z,97.21
2022-12-31T07:23:25.055Z,97.55
2022-12-31T07:25:28.044Z,97.25
2022-12-31T07:27:59.145Z,97.07
2022-12-31T07:30:06.838Z,96.93
2022-12-31T07:32:30.581Z,96.93
2022-12-31T07:34:58.516Z,97.63
2022-12-31T07:37:13.470Z,98.02
2022-12-31T07:39:35.634Z,98.33
2022-12-31T07:41:59.334Z,98.31
2022-12-31T07:44:23.992Z,97.46
2022-12-31T07:46:31.726Z,98.22
2022-12-31T07:48:34.672Z,98.31
2022-12-31T07:50:37.571Z,97.79
2022-12-31T07:52:40.437Z,97.87
2022-12-31T07:54:43.297Z,98.46
2022-12-31T07:56:46.960Z,97.88
2022-12-31T07:59:24.710Z,98.18
2022-12-31T08:01:56.086Z,98.27
2022-12-31T08:04:18.595Z,97.74
2022-12-31T08:06:50.158Z,98.10
2022-12-31T08:09:20.350Z,97.00
2022-12-31T08:11:35.755Z,97.15
2022-12-31T08:13:40.988Z,97.49
2022-12-31T08:15:44.132Z,97.00
2022-12-31T08:17:46.970Z,96.90
2022-12-31T08:19:49.935Z,96.69
2022-12-31T08:22:09.604Z,96.88
2022-12-31T08:24:25.897Z,96.58
2022-12-31T08:26:38.021Z,97.09
2022-12-31T08:28:43.460Z,96.70
2022-12-31T08:31:11.624Z,96.74
2022-12-31T08:33:30.978Z,96.29
2022-12-31T08:35:48.270Z,96.19
2022-12-31T08:38:23.311Z,96.25
2022-12-31T08:40:38.597Z,95.99
2022-12-31T08:43:06.237Z,96.11
2022-12-31T08:45:08.992Z,96.65
2022-12-31T08:47:35.461Z,96.50
2022-12-31T08:49:41.113Z,95.96
2022-12-31T08:51:43.943Z,96.39
2022-12-31T08:53:48.464Z,96.55
2022-12-31T08:56:07.886Z,96.76
2022-12-31T08:58:51.624Z,96.35
2022-12-31T09:00:58.223Z,96.14
2022-12-31T09:03:15.909Z,95.83
2022-12-31T09:05:32.848Z,95.97
2022-12-31T09:07:41.586Z,96.04
2022-12-31T09:10:03.067Z,95.75
2022-12-31T09:12:11.188Z,95.71
2022-12-31T09:14:30.940Z,96.18
2022-12-31T09:16:55.087Z,96.62
2022-12-31T09:18:57.779Z,97.51
2022-12-31T09:21:00.776Z,97.30
2022-12-31T09:23:04.148Z,97.01
2022-12-31T09:25:07.270Z,97.14
2022-12-31T09:27:27.607Z,96.30
2022-12-31T09:29:42.653Z,96.83
2022-12-31T09:32:10.339Z,97.00
2022-12-31T09:34:22.385Z,95.68
2022-12-31T09:36:41.978Z,96.26
2022-12-31T09:39:08.085Z,96.29
2022-12-31T09:41:37.041Z,96.80
2022-12-31T09:44:01.204Z,96.77
2022-12-31T09:46:22.813Z,97.06
2022-12-31T09:49:02.293Z,96.38
2022-12-31T09:51:33.047Z,96.75
2022-12-31T09:54:00.810Z,97.19
2022-12-31T09:56:29.360Z,97.29
2022-12-31T09:59:18.113Z,96.78
2022-12-31T10:01:39.814Z,97.21
2022-12-31T10:04:07.364Z,96.83
2022-12-31T10:06:24.976Z,96.76
2022-12-31T10:08:48.860Z,96.64
2022-12-31T10:11:03.257Z,96.75
2022-12-31T10:13:26.930Z,97.20
2022-12-31T10:16:14.337Z,96.85
2022-12-31T10:18:52.409Z,97.52
2022-12-31T10:21:18.245Z,96.76
2022-12-31T10:23:39.287Z,97.22
2022-12-31T10:26:17.644Z,97.52
2022-12-31T10:28:41.695Z,97.01
2022-12-31T10:31:03.259Z,97.34
2022-12-31T10:33:33.419Z,97.40
2022-12-31T10:36:15.972Z,97.31
2022-12-31T10:38:55.650Z,97.38
2022-12-31T10:41:36.935Z,97.09
2022-12-31T10:44:30.700Z,97.49
2022-12-31T10:46:48.642Z,97.66
2022-12-31T10:49:15.886Z,97.87
2022-12-31T10:51:55.680Z,97.29
2022-12-31T10:54:15.660Z,97.89
2022-12-31T10:56:42.914Z,97.51
2022-12-31T10:59:06.441Z,97.49
2022-12-31T11:01:28.483Z,97.72
2022-12-31T11:04:09.818Z,98.33
2022-12-31T11:06:15.245Z,98.60
2022-12-31T11:08:29.565Z,98.34
2022-12-31T11:10:54.631Z,98.02
2022-12-31T11:13:38.152Z,97.99
2022-12-31T11:16:14.241Z,99.03
2022-12-31T11:18:40.727Z,98.85
2022-12-31T11:21:00.460Z,98.80
2022-12-31T11:23:21.527Z,99.39
2022-12-31T11:25:54.844Z,98.97
2022-12-31T11:28:22.850Z,99.25
2022-12-31T11:30:52.129Z,99.05
2022-12-31T11:33:26.244Z,99.74
2022-12-31T11:35:47.052Z,99.27
2022-12-31T11:37:54.694Z,99.04
2022-12-31T11:40:23.269Z,99.90
2022-12-31T11:42:53.439Z,99.63
2022-12-31T11:45:03.460Z,99.99
2022-12-31T11:47:21.640Z,99.60
2022-12-31T11:49:26.850Z,98.92
2022-12-31T11:51:35.313Z,99.71
2022-12-31T11:53:46.726Z,100.00
2022-12-31T11:56:12.897Z,100.00
2022-12-31T11:58:18.747Z,100.00
2022-12-31T12:00:26.879Z,100.00
2022-12-31T12:02:44.219Z,100.00
2022-12-31T12:04:49.450Z,100.00
2022-12-31T12:06:53.584Z,100.00
2022-12-31T12:09:00.492Z,100.00
2022-12-31T12:11:13.863Z,100.00
2022-12-31T12:13:27.303Z,99.81
2022-12-31T12:15:37.540Z,100.00
2022-12-31T12:17:41.023Z,100.00
2022-12-31T12:19:47.405Z,100.00
2022-12-31T12:21:51.669Z,100.00
2022-12-31T12:23:58.434Z,100.00
2022-12-31T12:26:01.548Z,100.00
2022-12-31T12:28:24.427Z,100.00
2022-12-31T12:30:28.888Z,100.00
2022-12-31T12:32:31.511Z,100.00
2022-12-31T12:34:36.747Z,99.98
2022-12-31T12:36:47.489Z,100.00
2022-12-31T12:39:01.652Z,100.00
2022-12-31T12:41:10.276Z,100.00
2022-12-31T12:43:42.414Z,100.00
2022-12-31T12:45:52.065Z,100.00
2022-12-31T12:47:59.968Z,100.00
2022-12-31T12:50:04.520Z,100.00
2022-12-31T12:52:22.281Z,100.00
2022-12-31T12:54:58.748Z,100.00
2022-12-31T12:57:12.749Z,100.00
2022-12-31T12:59:21.696Z,100.00
2022-12-31T13:01:26.599Z,100.00
2022-12-31T13:03:41.738Z,100.00
2022-12-31T13:06:23.781Z,100.00
2022-12-31T13:08:38.099Z,100.00
2022-12-31T13:10:49.449Z,100.00
2022-12-31T13:13:23.300Z,100.00
2022-12-31T13:15:48.152Z,100.00
2022-12-31T13:18:01.885Z,100.00
2022-12-31T13:20:26.223Z,100.00
2022-12-31T13:22:40.292Z,100.00
2022-12-31T13:25:03.656Z,100.00
2022-12-31T13:27:21.488Z,100.00
2022-12-31T13:29:29.484Z,100.00
2022-12-31T13:31:35.639Z,100.00
2022-12-31T13:33:43.474Z,100.00
2022-12-31T13:35:57.775Z,100.00
2022-12-31T13:38:06.983Z,100.00
2022-12-31T13:40:29.900Z,100.00
2022-12-31T13:42:42.720Z,100.00
2022-12-31T13:44:52.071Z,100.00
2022-12-31T13:47:19.122Z,100.00
2022-12-31T13:49:45.729Z,100.00
2022-12-31T13:52:26.739Z,100.00
2022-12-31T13:54:42.771Z,100.00
2022-12-31T13:56:46.777Z,100.00
2022-12-31T13:58:57.011Z,100.00
2022-12-31T14:01:33.902Z,100.00
2022-12-31T14:04:01.669Z,100.00
2022-12-31T14:06:33.636Z,100.00
2022-12-31T14:08:36.330Z,100.00
2022-12-31T14:11:07.120Z,100.00
2022-12-31T14:13:37.123Z,100.00
2022-12-31T14:15:51.682Z,100.00
2022-12-31T14:18:35.473Z,100.00
2022-12-31T14:20:57.224Z,100.00
2022-12-31T14:23:14.921Z,100.00
2022-12-31T14:25:26.226Z,100.00
2022-12-31T14:27:37.144Z,100.00
2022-12-31T14:29:39.732Z,100.00
2022-12-31T14:32:02.474Z,100.00
2022-12-31T14:34:45.574Z,100.00
2022-12-31T14:37:15.997Z,100.00
2022-12-31T14:39:42.975Z,100.00
2022-12-31T14:41:58.954Z,100.00
2022-12-31T14:44:20.040Z,100.00
2022-12-31T14:46:24.385Z,100.00
2022-12-31T14:48:36.730Z,100.00
2022-12-31T14:50:39.644Z,100.00
2022-12-31T14:53:00.580Z,100.00
2022-12-31T14:55:09.621Z,100.00
2022-12-31T14:57:23.907Z,100.00
2022-12-31T14:59:29.202Z,100.00
2022-12-31T15:01:32.006Z,100.00
2022-12-31T15:03:45.791Z,100.00
2022-12-31T15:06:06.501Z,100.00
2022-12-31T15:08:33.731Z,100.00
2022-12-31T15:10:42.371Z,100.00
2022-12-31T15:13:07.732Z,100.00
2022-12-31T15:15:41.065Z,100.00
2022-12-31T15:18:25.571Z,100.00
2022-12-31T15:20:43.446Z,100.00
2022-12-31T15:22:51.301Z,100.00
2022-12-31T15:24:54.119Z,100.00
2022-12-31T15:27:21.172Z,100.00
2022-12-31T15:29:43.730Z,100.00
2022-12-31T15:31:47.986Z,100.00
2022-12-31T15:34:31.622Z,100.00
2022-12-31T15:36:38.832Z,100.00
2022-12-31T15:38:42.813Z,100.00
2022-12-31T15:40:51.000Z,100.00
2022-12-31T15:43:00.336Z,100.00
2022-12-31T15:45:07.082Z,100.00
2022-12-31T15:47:21.207Z,100.00
2022-12-31T15:49:26.198Z,100.00
2022-12-31T15:51:55.058Z,100.00
2022-12-31T15:54:01.021Z,100.00
2022-12-31T15:56:05.720Z,100.00
2022-12-31T15:58:13.051Z,100.00
2022-12-31T16:00:19.053Z,100.00
2022-12-31T16:02:25.798Z,100.00
2022-12-31T16:04:32.999Z,100.00
2022-12-31T16:06:38.912Z,100.00
2022-12-31T16:08:46.442Z,100.00
2022-12-31T16:10:49.436Z,100.00
2022-12-31T16:12:54.015Z,100.00
2022-12-31T16:14:59.535Z,100.00
2022-12-31T16:17:02.749Z,100.00
2022-12-31T16:19:43.067Z,100.00
2022-12-31T16:21:46.279Z,100.00
2022-12-31T16:23:54.069Z,100.00
2022-12-31T16:26:01.744Z,100.00
2022-12-31T16:28:04.723Z,100.00
2022-12-31T16:30:21.182Z,100.00
2022-12-31T16:32:24.065Z,100.00
2022-12-31T16:34:28.649Z,100.00
2022-12-31T16:36:31.598Z,100.00
2022-12-31T16:38:36.211Z,100.00
2022-12-31T16:40:40.801Z,100.00
2022-12-31T16:42:46.805Z,100.00
2022-12-31T16:44:51.158Z,100.00
2022-12-31T16:46:58.491Z,100.00
2022-12-31T16:49:19.647Z,100.00
2022-12-31T16:51:26.239Z,100.00
2022-12-31T16:53:32.831Z,100.00
2022-12-31T16:55:35.830Z,100.00
2022-12-31T16:57:38.675Z,100.00
2022-12-31T16:59:44.722Z,100.00
2022-12-31T17:01:47.908Z,100.00
2022-12-31T17:04:00.367Z,100.00
2022-12-31T17:06:12.595Z,100.00
2022-12-31T17:08:24.723Z,100.00
2022-12-31T17:10:34.122Z,100.00
2022-12-31T17:13:25.636Z,100.00
2022-12-31T17:15:19.661Z,100.00
2022-12-31T17:17:28.010Z,100.00
2022-12-31T17:19:33.243Z,100.00
2022-12-31T17:21:35.959Z,100.00
2022-12-31T17:23:40.088Z,100.00
2022-12-31T17:25:42.872Z,100.00
2022-12-31T17:27:54.472Z,100.00
2022-12-31T17:30:21.834Z,100.00
2022-12-31T17:32:37.285Z,100.00
2022-12-31T17:34:50.035Z,100.00
2022-12-31T17:36:59.815Z,100.00
2022-12-31T17:39:20.710Z,100.00
2022-12-31T17:41:27.780Z,100.00
2022-12-31T17:43:35.219Z,100.00
2022-12-31T17:45:39.371Z,100.00
2022-12-31T17:47:48.349Z,100.00
2022-12-31T17:49:53.528Z,100.00
2022-12-31T17:51:56.255Z,100.00
2022-12-31T17:54:01.006Z,100.00
2022-12-31T17:56:07.088Z,100.00
2022-12-31T17:58:24.751Z,100.00
2022-12-31T18:00:35.597Z,100.00
2022-12-31T18:02:38.387Z,100.00
2022-12-31T18:04:41.145Z,100.00
2022-12-31T18:06:44.297Z,100.00
2022-12-31T18:08:47.171Z,100.00
2022-12-31T18:10:51.329Z,100.00
2022-12-31T18:12:54.249Z,100.00
2022-12-31T18:14:56.904Z,100.00
2022-12-31T18:16:59.636Z,100.00
2022-12-31T18:19:02.684Z,100.00
2022-12-31T18:21:09.503Z,100.00
2022-12-31T18:23:43.379Z,100.00
2022-12-31T18:27:49.021Z,100.00
2022-12-31T18:29:51.783Z,100.00
2022-12-31T18:31:54.670Z,100.00
2022-12-31T18:33:59.144Z,100.00
2022-12-31T18:36:10.271Z,100.00
2022-12-31T18:38:15.141Z,100.00
2022-12-31T18:40:18.191Z,100.00
2022-12-31T18:42:23.667Z,100.00
2022-12-31T18:44:27.876Z,100.00
2022-12-31T18:46:30.610Z,100.00
2022-12-31T18:48:33.427Z,100.00
2022-12-31T18:50:36.325Z,100.00
2022-12-31T18:52:38.929Z,100.00
2022-12-31T18:54:42.397Z,100.00
2022-12-31T18:56:49.278Z,100.00
2022-12-31T18:58:54.286Z,100.00
2022-12-31T19:00:57.408Z,100.00
2022-12-31T19:03:00.725Z,100.00
2022-12-31T19:05:32.173Z,100.00
2022-12-31T19:07:34.763Z,100.00
2022-12-31T19:09:46.015Z,100.00
2022-12-31T19:11:49.290Z,100.00
2022-12-31T19:13:51.911Z,100.00
2022-12-31T19:15:55.814Z,100.00
2022-12-31T19:17:58.944Z,100.00
2022-12-31T19:20:04.608Z,100.00
2022-12-31T19:22:07.328Z,100.00
2022-12-31T19:24:19.552Z,100.00
2022-12-31T19:26:22.955Z,100.00
2022-12-31T19:28:27.668Z,100.00
2022-12-31T19:30:34.995Z,100.00
2022-12-31T19:32:37.694Z,100.00
2022-12-31T19:34:40.453Z,100.00
2022-12-31T19:36:44.452Z,100.00
2022-12-31T19:38:47.432Z,100.00
2022-12-31T19:40:50.983Z,100.00
2022-12-31T19:42:55.058Z,100.00
2022-12-31T19:44:58.270Z,100.00
2022-12-31T19:47:01.071Z,100.00
2022-12-31T19:49:03.795Z,100.00
2022-12-31T19:51:10.176Z,100.00
2022-12-31T19:53:18.866Z,100.00
2022-12-31T19:55:23.061Z,100.00
2022-12-31T19:57:25.660Z,100.00
2022-12-31T19:59:28.408Z,100.00
2022-12-31T20:01:31.170Z,100.00
2022-12-31T20:03:33.952Z,100.00
2022-12-31T20:05:36.735Z,100.00
2022-12-31T20:07:39.747Z,100.00
2022-12-31T20:09:42.367Z,100.00
2022-12-31T20:11:45.113Z,100.00
2022-12-31T20:13:49.341Z,100.00
2022-12-31T20:15:52.591Z,100.00
2022-12-31T20:17:57.896Z,100.00
2022-12-31T20:20:00.740Z,100.00
2022-12-31T20:22:03.613Z,100.00
2022-12-31T20:24:06.585Z,100.00
2022-12-31T20:26:09.886Z,100.00
2022-12-31T20:28:12.555Z,100.00
2022-12-31T20:30:15.776Z,100.00
2022-12-31T20:32:18.719Z,100.00
2022-12-31T20:34:21.399Z,100.00
2022-12-31T20:36:24.279Z,100.00
2022-12-31T20:38:28.066Z,99.91
2022-12-31T20:40:30.741Z,100.00
2022-12-31T20:42:33.501Z,100.00
2022-12-31T20:44:36.213Z,100.00
2022-12-31T20:46:39.351Z,100.00
2022-12-31T20:48:42.371Z,100.00
2022-12-31T20:50:54.946Z,100.00
2022-12-31T20:52:57.954Z,100.00
2022-12-31T20:55:00.607Z,99.72
2022-12-31T20:57:03.640Z,100.00
2022-12-31T20:59:07.940Z,100.00
2022-12-31T21:01:11.148Z,100.00
2022-12-31T21:03:36.820Z,100.00
2022-12-31T21:05:36.492Z,100.00
2022-12-31T21:07:39.388Z,99.71
2022-12-31T21:09:42.094Z,99.92
2022-12-31T21:12:03.333Z,100.00
2022-12-31T21:14:06.160Z,99.94
2022-12-31T21:16:08.849Z,99.97
2022-12-31T21:18:11.535Z,99.97
2022-12-31T21:20:14.210Z,99.91
2022-12-31T21:22:17.035Z,100.00
2022-12-31T21:24:23.801Z,99.79
2022-12-31T21:26:26.777Z,99.82
2022-12-31T21:28:29.447Z,99.98
2022-12-31T21:30:32.194Z,100.00
2022-12-31T21:32:35.155Z,100.00
2022-12-31T21:34:38.060Z,100.00
2022-12-31T21:36:40.767Z,99.91
2022-12-31T21:38:44.175Z,100.00
2022-12-31T21:40:47.236Z,100.00
2022-12-31T21:42:49.876Z,100.00
2022-12-31T21:44:53.713Z,100.00
2022-12-31T21:47:34.989Z,100.00
2022-12-31T21:49:38.807Z,100.00
2022-12-31T21:51:59.606Z,99.64
2022-12-31T21:54:02.063Z,99.70
2022-12-31T21:56:08.575Z,100.00
2022-12-31T21:58:28.157Z,100.00
2022-12-31T22:00:49.866Z,100.00
2022-12-31T22:03:11.559Z,99.74
2022-12-31T22:05:21.443Z,99.70
2022-12-31T22:07:27.613Z,99.80
2022-12-31T22:09:31.069Z,100.00
2022-12-31T22:11:33.748Z,99.93
2022-12-31T22:13:37.041Z,100.00
2022-12-31T22:15:43.907Z,99.78
2022-12-31T22:17:47.125Z,99.89
2022-12-31T22:20:17.584Z,99.57
2022-12-31T22:22:12.520Z,99.61
2022-12-31T22:24:15.337Z,99.26
2022-12-31T22:26:19.933Z,99.55
2022-12-31T22:28:39.416Z,100.00
2022-12-31T22:30:42.669Z,99.82
2022-12-31T22:32:45.764Z,99.66
2022-12-31T22:34:48.490Z,99.09
2022-12-31T22:36:51.120Z,99.62
2022-12-31T22:38:58.576Z,99.65
2022-12-31T22:41:06.513Z,99.42
2022-12-31T22:43:09.096Z,99.04
2022-12-31T22:45:12.014Z,99.68
2022-12-31T22:47:14.678Z,99.28
2022-12-31T22:49:17.591Z,99.68
2022-12-31T22:51:21.001Z,99.32
2022-12-31T22:53:23.841Z,99.72
2022-12-31T22:55:26.605Z,99.55
2022-12-31T22:57:29.270Z,99.57
2022-12-31T22:59:32.044Z,99.53
2022-12-31T23:01:34.836Z,99.64
2022-12-31T23:03:37.547Z,99.14
2022-12-31T23:05:40.429Z,99.32
2022-12-31T23:07:43.173Z,99.35
2022-12-31T23:10:04.371Z,99.00
2022-12-31T23:12:08.711Z,99.94
2022-12-31T23:14:35.215Z,99.81
2022-12-31T23:16:56.505Z,99.35
2022-12-31T23:19:19.606Z,99.49
2022-12-31T23:21:41.019Z,99.34
2022-12-31T23:23:43.661Z,99.30
2022-12-31T23:25:49.198Z,99.08
2022-12-31T23:27:51.951Z,99.37
2022-12-31T23:29:54.544Z,99.24
2022-12-31T23:31:57.405Z,99.37
2022-12-31T23:34:00.250Z,99.44
2022-12-31T23:36:07.141Z,99.15
2022-12-31T23:38:10.322Z,98.84
2022-12-31T23:40:20.736Z,99.26
2022-12-31T23:42:24.105Z,98.90
2022-12-31T23:44:27.544Z,99.24
2022-12-31T23:46:30.311Z,98.76
2022-12-31T23:48:32.979Z,98.92
2022-12-31T23:50:35.791Z,99.19
2022-12-31T23:52:38.527Z,99.54
2022-12-31T23:54:41.267Z,99.28
2022-12-31T23:56:44.310Z,98.59
2022-12-31T23:58:47.639Z,98.96
